createdAt,value
2023-01-13T00:01:28.964Z,27.40
2023-01-13T00:03:57.188Z,28.42
2023-01-13T00:06:26.042Z,26.52
2023-01-13T00:08:54.637Z,28.63
2023-01-13T00:11:22.620Z,29.35
2023-01-13T00:13:50.095Z,39.20
2023-01-13T00:16:19.461Z,33.08
2023-01-13T00:18:48.408Z,33.83
2023-01-13T00:21:23.215Z,32.83
2023-01-13T00:23:54.117Z,36.67
2023-01-13T00:26:25.787Z,36.80
2023-01-13T00:28:58.628Z,33.03
2023-01-13T00:31:28.240Z,36.03
2023-01-13T00:34:01.003Z,37.67
2023-01-13T00:36:29.523Z,32.97
2023-01-13T00:38:57.947Z,34.00
2023-01-13T00:41:27.566Z,30.10
2023-01-13T00:43:55.066Z,28.83
2023-01-13T00:46:23.004Z,27.02
2023-01-13T00:48:51.571Z,25.67
2023-01-13T00:53:51.945Z,27.08
2023-01-13T00:56:40.795Z,21.42
2023-01-13T00:59:13.708Z,23.52
2023-01-13T01:01:41.996Z,29.40
2023-01-13T01:04:09.509Z,33.03
2023-01-13T01:06:36.912Z,33.78
2023-01-13T01:09:05.572Z,31.33
2023-01-13T01:14:03.621Z,33.17
2023-01-13T01:16:33.633Z,36.95
2023-01-13T01:19:01.959Z,34.75
2023-01-13T01:21:29.760Z,32.45
2023-01-13T01:24:02.341Z,31.55
2023-01-13T01:26:32.049Z,32.40
2023-01-13T01:28:59.859Z,32.03
2023-01-13T01:31:31.678Z,33.13
2023-01-13T01:34:01.109Z,33.00
2023-01-13T01:36:30.313Z,29.80
2023-01-13T01:38:59.580Z,28.60
2023-01-13T01:41:32.562Z,26.63
2023-01-13T01:44:43.630Z,29.13
2023-01-13T01:47:16.152Z,22.67
2023-01-13T01:49:46.532Z,27.00
2023-01-13T01:52:34.731Z,26.58
2023-01-13T01:55:10.684Z,25.20
2023-01-13T01:57:46.806Z,26.00
2023-01-13T02:00:14.899Z,27.65
2023-01-13T02:02:46.652Z,27.95
2023-01-13T02:05:14.578Z,29.05
2023-01-13T02:07:45.727Z,25.83
2023-01-13T02:10:19.451Z,21.25
2023-01-13T02:12:49.032Z,26.92
2023-01-13T02:15:27.797Z,26.08
2023-01-13T02:18:16.010Z,20.67
2023-01-13T02:21:21.164Z,25.30
2023-01-13T02:24:35.032Z,21.65
2023-01-13T02:27:36.747Z,19.60
2023-01-13T02:30:48.518Z,22.90
2023-01-13T02:33:34.355Z,20.27
2023-01-13T02:36:49.204Z,18.50
2023-01-13T02:39:30.035Z,23.75
2023-01-13T02:42:30.940Z,21.10
2023-01-13T02:45:11.217Z,25.38
2023-01-13T02:47:44.159Z,24.25
2023-01-13T02:50:18.036Z,22.92
2023-01-13T02:52:54.327Z,25.33
2023-01-13T02:55:42.877Z,18.27
2023-01-13T02:58:16.811Z,20.48
2023-01-13T03:00:46.576Z,26.23
2023-01-13T03:03:14.225Z,26.80
2023-01-13T03:05:46.311Z,29.65
2023-01-13T03:08:53.517Z,20.67
2023-01-13T03:11:21.886Z,18.60
2023-01-13T03:14:04.784Z,16.55
2023-01-13T03:16:49.300Z,16.23
2023-01-13T03:19:29.386Z,21.05
2023-01-13T03:22:19.557Z,15.82
2023-01-13T03:24:56.614Z,13.82
2023-01-13T03:27:41.696Z,55.70
2023-01-13T03:30:21.875Z,64.82
2023-01-13T03:33:01.046Z,54.90
2023-01-13T03:35:35.161Z,46.28
2023-01-13T03:38:28.317Z,47.78
2023-01-13T03:41:03.479Z,58.15
2023-01-13T03:44:00.918Z,70.90
2023-01-13T03:46:39.984Z,75.90
2023-01-13T03:49:13.229Z,64.45
2023-01-13T03:51:47.800Z,101.93
2023-01-13T03:54:20.237Z,89.60
2023-01-13T03:57:01.737Z,86.18
2023-01-13T03:59:38.780Z,92.55
2023-01-13T04:02:43.680Z,63.33
2023-01-13T04:05:11.974Z,44.75
2023-01-13T04:08:23.974Z,46.42
2023-01-13T04:11:02.438Z,53.45
2023-01-13T04:16:01.812Z,86.63
2023-01-13T04:18:31.627Z,105.28
2023-01-13T04:21:01.881Z,123.32
2023-01-13T04:23:29.780Z,109.70
2023-01-13T04:25:57.302Z,100.25
2023-01-13T04:28:26.572Z,70.63
2023-01-13T04:30:54.259Z,61.28
2023-01-13T04:33:21.867Z,63.80
2023-01-13T04:35:49.361Z,71.50
2023-01-13T04:38:20.791Z,59.83
2023-01-13T04:40:48.767Z,56.08
2023-01-13T04:43:16.353Z,50.58
2023-01-13T04:45:44.345Z,56.63
2023-01-13T04:48:12.339Z,65.85
2023-01-13T04:50:39.953Z,71.78
2023-01-13T04:53:07.772Z,129.23
2023-01-13T04:55:35.483Z,59.40
2023-01-13T04:58:08.719Z,70.60
2023-01-13T05:00:37.373Z,74.50
2023-01-13T05:05:32.845Z,91.95
2023-01-13T05:08:00.265Z,79.85
2023-01-13T05:10:27.751Z,54.67
2023-01-13T05:13:13.754Z,47.72
2023-01-13T05:16:01.763Z,41.85
2023-01-13T05:18:31.346Z,40.22
2023-01-13T05:20:58.691Z,39.00
2023-01-13T05:23:44.901Z,35.63
2023-01-13T05:26:12.418Z,27.00
2023-01-13T05:28:39.834Z,34.25
2023-01-13T05:31:07.314Z,33.28
2023-01-13T05:33:36.035Z,44.10
2023-01-13T05:36:03.942Z,41.42
2023-01-13T05:38:31.515Z,38.00
2023-01-13T05:41:18.715Z,29.50
2023-01-13T05:43:46.247Z,23.75
2023-01-13T05:46:14.900Z,23.00
2023-01-13T05:48:43.785Z,26.50
2023-01-13T05:51:13.065Z,24.58
2023-01-13T05:53:43.612Z,27.27
2023-01-13T05:56:11.718Z,20.67
2023-01-13T05:58:39.183Z,21.75
2023-01-13T06:01:09.079Z,21.77
2023-01-13T06:03:37.647Z,25.95
2023-01-13T06:06:05.354Z,24.13
2023-01-13T06:08:33.070Z,21.75
2023-01-13T06:11:00.544Z,21.92
2023-01-13T06:13:28.044Z,25.85
2023-01-13T06:15:58.121Z,29.40
2023-01-13T06:18:26.591Z,25.17
2023-01-13T06:20:54.297Z,26.25
2023-01-13T06:23:21.688Z,22.67
2023-01-13T06:26:17.511Z,27.02
2023-01-13T06:28:44.875Z,26.00
2023-01-13T06:31:12.751Z,27.15
2023-01-13T06:33:49.333Z,21.05
2023-01-13T06:36:29.318Z,21.25
2023-01-13T06:39:01.306Z,22.00
2023-01-13T06:41:50.634Z,21.40
2023-01-13T06:44:20.504Z,20.40
2023-01-13T06:46:48.097Z,13.18
2023-01-13T06:49:15.543Z,16.17
2023-01-13T06:51:43.129Z,14.50
2023-01-13T06:54:10.419Z,19.77
2023-01-13T06:56:37.754Z,13.93
2023-01-13T06:59:05.253Z,13.50
2023-01-13T07:01:32.848Z,13.40
2023-01-13T07:04:00.371Z,10.67
2023-01-13T07:06:27.795Z,13.80
2023-01-13T07:08:55.230Z,12.80
2023-01-13T07:11:22.991Z,11.25
2023-01-13T07:14:09.342Z,12.25
2023-01-13T07:16:36.918Z,16.33
2023-01-13T07:19:04.530Z,229.40
2023-01-13T07:21:32.062Z,305.57
2023-01-13T07:23:59.579Z,255.90
2023-01-13T07:26:26.961Z,250.30
2023-01-13T07:28:54.531Z,272.25
2023-01-13T07:31:22.196Z,250.82
2023-01-13T07:33:49.600Z,225.03
2023-01-13T07:36:17.082Z,313.40
2023-01-13T07:38:44.759Z,289.37
2023-01-13T07:41:33.226Z,285.30
2023-01-13T07:44:04.773Z,302.13
2023-01-13T07:46:33.336Z,271.23
2023-01-13T07:49:00.842Z,271.88
2023-01-13T07:51:28.516Z,261.83
2023-01-13T07:53:55.958Z,254.75
2023-01-13T07:56:23.388Z,247.10
2023-01-13T07:58:54.098Z,124.00
2023-01-13T08:01:21.822Z,51.50
2023-01-13T08:03:49.285Z,28.40
2023-01-13T08:06:16.678Z,27.00
2023-01-13T08:08:44.344Z,23.75
2023-01-13T08:11:11.779Z,21.57
2023-01-13T08:13:39.260Z,20.92
2023-01-13T08:16:11.698Z,28.95
2023-01-13T08:18:40.143Z,26.60
2023-01-13T08:21:13.964Z,22.98
2023-01-13T08:23:45.690Z,15.90
2023-01-13T08:26:17.269Z,17.98
2023-01-13T08:28:45.918Z,17.48
2023-01-13T08:31:17.093Z,19.02
2023-01-13T08:33:44.779Z,16.67
2023-01-13T08:36:12.849Z,15.83
2023-01-13T08:38:41.702Z,12.90
2023-01-13T08:41:16.103Z,10.03
2023-01-13T08:43:43.523Z,15.50
2023-01-13T08:46:11.547Z,150.43
2023-01-13T08:48:39.090Z,161.98
2023-01-13T08:51:09.520Z,128.23
2023-01-13T08:53:37.030Z,141.68
2023-01-13T08:56:13.190Z,130.43
2023-01-13T08:58:41.040Z,125.03
2023-01-13T09:01:11.330Z,148.10
2023-01-13T09:03:39.366Z,170.05
2023-01-13T09:06:07.173Z,157.40
2023-01-13T09:08:34.846Z,165.38
2023-01-13T09:11:22.473Z,184.10
2023-01-13T09:13:52.226Z,189.27
2023-01-13T09:16:19.623Z,226.18
2023-01-13T09:18:47.034Z,223.33
2023-01-13T09:21:15.164Z,232.68
2023-01-13T09:23:42.587Z,239.45
2023-01-13T09:26:11.581Z,254.35
2023-01-13T09:28:38.948Z,258.35
2023-01-13T09:31:06.384Z,246.30
2023-01-13T09:33:52.370Z,228.93
2023-01-13T09:36:21.391Z,222.98
2023-01-13T09:38:51.630Z,186.73
2023-01-13T09:41:41.329Z,162.20
2023-01-13T09:44:50.615Z,112.18
2023-01-13T09:47:30.673Z,156.70
2023-01-13T09:50:27.875Z,106.43
2023-01-13T09:52:55.875Z,71.03
2023-01-13T09:55:33.937Z,76.28
2023-01-13T09:58:08.758Z,76.53
2023-01-13T10:01:04.323Z,73.57
2023-01-13T10:03:33.756Z,88.95
2023-01-13T10:06:19.723Z,84.10
2023-01-13T10:08:49.262Z,71.95
2023-01-13T10:11:42.753Z,70.82
2023-01-13T10:14:28.231Z,51.15
2023-01-13T10:17:07.702Z,39.88
2023-01-13T10:19:50.582Z,58.40
2023-01-13T10:22:30.246Z,58.72
2023-01-13T10:25:21.904Z,43.33
2023-01-13T10:27:52.852Z,53.30
2023-01-13T10:30:32.126Z,43.20
2023-01-13T10:33:06.356Z,43.72
2023-01-13T10:36:13.259Z,40.40
2023-01-13T10:38:44.525Z,35.30
2023-01-13T10:41:14.841Z,28.55
2023-01-13T10:44:15.494Z,29.15
2023-01-13T10:46:58.844Z,27.48
2023-01-13T10:49:33.830Z,37.38
2023-01-13T10:52:03.319Z,35.08
2023-01-13T10:54:31.133Z,32.45
2023-01-13T10:57:21.000Z,33.28
2023-01-13T10:59:50.976Z,27.73
2023-01-13T11:02:31.775Z,30.05
2023-01-13T11:05:21.047Z,24.40
2023-01-13T11:07:54.324Z,25.85
2023-01-13T11:10:27.350Z,23.08
2023-01-13T11:14:01.511Z,26.48
2023-01-13T11:16:29.200Z,32.58
2023-01-13T11:19:13.803Z,34.07
2023-01-13T11:22:06.972Z,29.77
2023-01-13T11:24:54.998Z,31.40
2023-01-13T11:27:36.354Z,28.10
2023-01-13T11:30:50.845Z,26.95
2023-01-13T11:33:35.890Z,27.98
2023-01-13T11:36:21.278Z,22.27
2023-01-13T11:38:56.042Z,20.17
2023-01-13T11:42:24.241Z,21.27
2023-01-13T11:45:20.018Z,17.73
2023-01-13T11:47:52.571Z,23.00
2023-01-13T11:50:28.850Z,24.70
2023-01-13T11:53:24.962Z,21.35
2023-01-13T11:56:13.735Z,20.98
2023-01-13T11:59:11.143Z,26.50
2023-01-13T12:02:05.881Z,19.48
2023-01-13T12:04:58.110Z,16.73
2023-01-13T12:07:55.351Z,19.45
2023-01-13T12:10:31.523Z,19.07
2023-01-13T12:13:58.265Z,13.05
2023-01-13T12:16:30.486Z,14.02
2023-01-13T12:19:16.198Z,18.70
2023-01-13T12:22:13.449Z,21.67
2023-01-13T12:25:00.166Z,13.67
2023-01-13T12:27:33.242Z,14.70
2023-01-13T12:30:13.143Z,13.98
2023-01-13T12:32:41.755Z,13.10
2023-01-13T12:35:31.729Z,16.98
2023-01-13T12:38:32.857Z,14.48
2023-01-13T12:41:18.962Z,14.82
2023-01-13T12:44:07.971Z,15.32
2023-01-13T12:46:53.459Z,11.43
2023-01-13T12:49:30.918Z,9.68
2023-01-13T12:51:58.285Z,9.10
2023-01-13T12:54:37.667Z,13.05
2023-01-13T12:57:28.398Z,12.02
2023-01-13T13:00:05.015Z,14.88
2023-01-13T13:02:42.576Z,13.35
2023-01-13T13:05:25.364Z,15.83
2023-01-13T13:08:20.061Z,12.10
2023-01-13T13:10:59.216Z,14.85
2023-01-13T13:13:48.218Z,18.10
2023-01-13T13:16:29.110Z,10.82
2023-01-13T13:19:18.570Z,11.13
2023-01-13T13:22:14.436Z,12.15
2023-01-13T13:24:48.486Z,13.43
2023-01-13T13:27:40.979Z,17.08
2023-01-13T13:30:21.842Z,29.80
2023-01-13T13:32:57.933Z,15.38
2023-01-13T13:35:40.211Z,8.70
2023-01-13T13:38:59.260Z,14.45
2023-01-13T13:41:46.168Z,17.73
2023-01-13T13:44:38.901Z,14.88
2023-01-13T13:47:07.362Z,10.23
2023-01-13T13:49:44.870Z,10.00
2023-01-13T13:52:29.684Z,7.20
2023-01-13T13:55:08.419Z,10.55
2023-01-13T13:57:40.064Z,21.17
2023-01-13T14:00:19.785Z,14.57
2023-01-13T14:02:52.951Z,19.38
2023-01-13T14:05:30.214Z,12.13
2023-01-13T14:08:09.579Z,13.05
2023-01-13T14:10:40.826Z,12.88
2023-01-13T14:13:18.751Z,12.50
2023-01-13T14:15:49.313Z,61.92
2023-01-13T14:18:20.980Z,19.55
2023-01-13T14:20:59.524Z,127.45
2023-01-13T14:23:33.340Z,107.82
2023-01-13T14:26:13.211Z,24.85
2023-01-13T14:28:42.030Z,22.67
2023-01-13T14:31:10.584Z,27.00
2023-01-13T14:33:44.604Z,66.70
2023-01-13T14:36:24.656Z,38.78
2023-01-13T14:39:04.120Z,27.10
2023-01-13T14:41:42.249Z,32.08
2023-01-13T14:44:12.371Z,38.92
2023-01-13T14:46:45.901Z,32.25
2023-01-13T14:49:30.891Z,42.42
2023-01-13T14:52:20.129Z,30.33
2023-01-13T14:54:50.606Z,56.15
2023-01-13T14:57:31.399Z,35.30
2023-01-13T15:00:13.711Z,39.30
2023-01-13T15:02:53.482Z,34.65
2023-01-13T15:05:22.521Z,32.13
2023-01-13T15:08:05.244Z,78.35
2023-01-13T15:10:42.094Z,38.28
2023-01-13T15:13:29.796Z,52.00
2023-01-13T15:16:01.256Z,56.90
2023-01-13T15:18:28.713Z,60.22
2023-01-13T15:20:56.138Z,40.17
2023-01-13T15:23:23.982Z,40.53
2023-01-13T15:25:51.363Z,39.87
2023-01-13T15:28:25.348Z,45.28
2023-01-13T15:30:55.718Z,50.80
2023-01-13T15:33:23.314Z,50.97
2023-01-13T15:35:53.924Z,104.70
2023-01-13T15:38:24.611Z,220.82
2023-01-13T15:40:52.942Z,117.80
2023-01-13T15:43:41.965Z,80.50
2023-01-13T15:46:34.402Z,71.45
2023-01-13T15:49:25.232Z,66.13
2023-01-13T15:51:52.807Z,121.38
2023-01-13T15:54:23.060Z,124.28
2023-01-13T15:56:51.788Z,113.47
2023-01-13T15:59:24.133Z,117.88
2023-01-13T16:01:51.818Z,114.63
2023-01-13T16:04:19.305Z,114.97
2023-01-13T16:06:47.613Z,127.47
2023-01-13T16:09:16.922Z,168.77
2023-01-13T16:11:44.415Z,156.82
2023-01-13T16:14:11.856Z,154.95
2023-01-13T16:16:39.352Z,143.40
2023-01-13T16:19:06.766Z,133.43
2023-01-13T16:21:35.288Z,126.22
2023-01-13T16:26:30.282Z,111.93
2023-01-13T16:28:58.471Z,112.73
2023-01-13T16:31:32.157Z,114.65
2023-01-13T16:34:03.952Z,103.35
2023-01-13T16:36:35.965Z,110.07
2023-01-13T16:39:04.881Z,107.72
2023-01-13T16:41:34.038Z,130.80
2023-01-13T16:44:05.987Z,114.75
2023-01-13T16:46:33.886Z,100.65
2023-01-13T16:49:06.798Z,86.10
2023-01-13T16:51:34.144Z,73.28
2023-01-13T16:54:01.574Z,73.43
2023-01-13T16:56:32.588Z,92.45
2023-01-13T16:59:07.523Z,62.55
2023-01-13T17:01:38.728Z,39.75
2023-01-13T17:04:12.284Z,55.70
2023-01-13T17:06:52.441Z,72.10
2023-01-13T17:09:26.534Z,70.00
2023-01-13T17:11:55.177Z,88.07
2023-01-13T17:19:27.456Z,104.53
2023-01-13T17:21:54.920Z,107.95
2023-01-13T17:24:24.854Z,161.32
2023-01-13T17:26:52.347Z,187.45
2023-01-13T17:29:25.300Z,196.60
2023-01-13T17:31:53.105Z,218.88
2023-01-13T17:34:21.572Z,241.07
2023-01-13T17:36:49.071Z,353.70
2023-01-13T17:39:20.991Z,149.75
2023-01-13T17:41:48.621Z,133.90
2023-01-13T17:44:21.765Z,108.10
2023-01-13T17:46:49.940Z,102.05
2023-01-13T17:49:21.759Z,84.22
2023-01-13T17:51:51.144Z,67.05
2023-01-13T17:54:19.451Z,57.67
2023-01-13T17:56:46.987Z,44.47
2023-01-13T17:59:18.057Z,121.03
2023-01-13T18:01:46.358Z,394.20
2023-01-13T18:04:19.883Z,389.48
2023-01-13T18:06:48.479Z,196.40
2023-01-13T18:11:45.586Z,334.83
2023-01-13T18:14:14.439Z,204.18
2023-01-13T18:16:42.268Z,75.25
2023-01-13T18:19:29.563Z,58.97
2023-01-13T18:22:15.381Z,47.58
2023-01-13T18:25:01.279Z,40.55
2023-01-13T18:27:36.329Z,37.55
2023-01-13T18:30:05.090Z,58.08
2023-01-13T18:32:34.348Z,44.25
2023-01-13T18:35:06.656Z,46.17
2023-01-13T18:37:38.528Z,43.67
2023-01-13T18:40:09.416Z,49.70
2023-01-13T18:42:56.054Z,71.85
2023-01-13T18:45:27.662Z,104.82
2023-01-13T18:47:59.056Z,109.57
2023-01-13T18:50:28.251Z,114.75
2023-01-13T18:52:56.633Z,116.45
2023-01-13T18:55:24.675Z,123.82
2023-01-13T18:57:53.193Z,94.97
2023-01-13T19:00:22.465Z,68.65
2023-01-13T19:05:35.909Z,51.85
2023-01-13T19:08:04.859Z,50.97
2023-01-13T19:13:01.628Z,54.88
2023-01-13T19:15:29.130Z,39.17
2023-01-13T19:17:56.667Z,41.07
2023-01-13T19:20:24.200Z,38.97
2023-01-13T19:22:54.471Z,36.73
2023-01-13T19:25:22.235Z,32.55
2023-01-13T19:27:49.622Z,28.52
2023-01-13T19:30:17.483Z,32.20
2023-01-13T19:32:44.847Z,56.55
2023-01-13T19:35:17.372Z,59.42
2023-01-13T19:37:44.791Z,39.72
2023-01-13T19:40:15.897Z,33.53
2023-01-13T19:43:02.877Z,47.33
2023-01-13T19:45:33.592Z,41.53
2023-01-13T19:48:05.811Z,37.47
2023-01-13T19:50:41.358Z,30.95
2023-01-13T19:53:17.614Z,40.67
2023-01-13T19:55:49.253Z,50.53
2023-01-13T19:58:23.083Z,56.22
2023-01-13T20:00:52.307Z,122.07
2023-01-13T20:03:24.438Z,125.45
2023-01-13T20:05:53.433Z,59.50
2023-01-13T20:08:22.759Z,51.25
2023-01-13T20:10:50.226Z,42.90
2023-01-13T20:13:17.653Z,51.53
2023-01-13T20:15:45.189Z,55.58
2023-01-13T20:18:12.721Z,46.47
2023-01-13T20:20:40.143Z,52.67
2023-01-13T20:23:07.504Z,45.10
2023-01-13T20:25:35.014Z,36.15
2023-01-13T20:28:02.601Z,29.63
2023-01-13T20:30:29.971Z,28.55
2023-01-13T20:32:57.396Z,30.55
2023-01-13T20:35:29.554Z,36.42
2023-01-13T20:37:57.265Z,40.17
2023-01-13T20:40:24.721Z,60.70
2023-01-13T20:42:52.669Z,70.07
2023-01-13T20:45:23.503Z,153.75
2023-01-13T20:47:50.993Z,107.10
2023-01-13T20:50:18.553Z,152.73
2023-01-13T20:52:46.956Z,264.25
2023-01-13T20:55:14.931Z,202.00
2023-01-13T20:57:42.404Z,174.48
2023-01-13T21:00:10.946Z,129.40
2023-01-13T21:05:08.798Z,80.35
2023-01-13T21:07:36.230Z,133.27
2023-01-13T21:10:04.512Z,84.85
2023-01-13T21:13:07.019Z,80.65
2023-01-13T21:15:34.886Z,104.85
2023-01-13T21:18:21.136Z,113.82
2023-01-13T21:20:50.797Z,92.95
2023-01-13T21:23:18.299Z,62.17
2023-01-13T21:25:45.650Z,58.00
2023-01-13T21:28:14.015Z,42.33
2023-01-13T21:30:41.566Z,52.97
2023-01-13T21:33:14.083Z,37.88
2023-01-13T21:35:41.477Z,37.20
2023-01-13T21:38:11.131Z,34.63
2023-01-13T21:40:38.494Z,44.67
2023-01-13T21:43:24.380Z,48.05
2023-01-13T21:46:10.480Z,72.25
2023-01-13T21:48:37.923Z,120.03
2023-01-13T21:51:05.544Z,63.42
2023-01-13T21:53:32.954Z,55.47
2023-01-13T21:56:00.303Z,40.88
2023-01-13T21:58:27.666Z,44.83
2023-01-13T22:00:55.220Z,47.67
2023-01-13T22:03:22.695Z,54.83
2023-01-13T22:05:56.477Z,47.22
2023-01-13T22:08:23.919Z,47.95
2023-01-13T22:10:57.361Z,50.47
2023-01-13T22:13:46.240Z,54.90
2023-01-13T22:16:15.677Z,58.47
2023-01-13T22:18:43.203Z,51.70
2023-01-13T22:21:11.159Z,51.35
2023-01-13T22:23:38.629Z,43.08
2023-01-13T22:26:07.759Z,46.05
2023-01-13T22:28:44.737Z,43.53
2023-01-13T22:31:21.062Z,41.60
2023-01-13T22:33:48.569Z,44.60
2023-01-13T22:36:15.947Z,46.63
2023-01-13T22:38:43.446Z,61.58
2023-01-13T22:41:11.039Z,55.55
2023-01-13T22:43:38.726Z,37.55
2023-01-13T22:46:10.836Z,37.90
2023-01-13T22:48:40.215Z,38.45
2023-01-13T22:51:14.458Z,31.50
2023-01-13T22:53:42.857Z,34.67
2023-01-13T22:56:18.600Z,67.20
2023-01-13T22:58:46.243Z,44.80
2023-01-13T23:01:17.188Z,30.50
2023-01-13T23:03:47.877Z,38.35
2023-01-13T23:06:18.240Z,42.00
2023-01-13T23:08:47.299Z,39.15
2023-01-13T23:11:18.409Z,47.53
2023-01-13T23:13:46.573Z,56.45
2023-01-13T23:16:19.369Z,49.33
2023-01-13T23:18:48.587Z,44.97
2023-01-13T23:21:29.620Z,47.38
2023-01-13T23:23:58.778Z,53.03
2023-01-13T23:26:28.471Z,54.33
2023-01-13T23:29:08.930Z,47.97
2023-01-13T23:31:36.399Z,49.72
2023-01-13T23:34:03.822Z,44.50
2023-01-13T23:36:31.393Z,47.10
2023-01-13T23:38:59.960Z,49.50
2023-01-13T23:43:59.616Z,40.92
2023-01-13T23:46:30.197Z,36.33
2023-01-13T23:48:57.732Z,32.70
2023-01-13T23:51:26.512Z,33.33
2023-01-13T23:53:54.579Z,35.13
2023-01-13T23:56:31.078Z,30.63
2023-01-13T23:58:59.251Z,29.27
